SABE/AEP METAR and TAF weather

Enter ICAO airport designator
Station Type Date Time Source
SABE METAR 2020/11/28 20:00 UTC NOAA

SABE 282000Z 31011KT 9999 BKN040 SCT100 22/16 Q1008 NOSIG


Station Type Date Time Source
SABE Decoded METAR 2020/11/28 20:00 UTC NOAA

Aeroparque Bs. As. Aerodrome, Argentina (SABE) 34-34S 058-25W 6M
Nov 28, 2020 - 03:00 PM EST / 2020.11.28 2000 UTC
Wind: from the NW (310 degrees) at 13 MPH (11 KT):0
Visibility: greater than 7 mile(s):0
Sky conditions: mostly cloudy
Temperature: 71 F (22 C)
Dew Point: 60 F (16 C)
Relative Humidity: 68%
Pressure (altimeter): 29.77 in. Hg (1008 hPa)
ob: SABE 282000Z 31011KT 9999 BKN040 SCT100 22/16 Q1008 NOSIG
cycle: 20

Station Type Date Time Source
SABE TAF 2020/11/28 18:21 UTC NOAA

TAF SABE 281700Z 2818/2918 06020G30KT 8000 -DZ BKN030 TX26/2918Z TN19/2909Z
BECMG 2818/2820 07015KT 9999 NSW
BECMG 2902/2905 VRB10KT

Example: see airport list